Time;durP1;ratioP1;P1;durP2;ratioP2;P2;SDS_P1;SDS_P2;PMS_P1;PMS_P2;Temp;Humidity;BMP_temperature;BMP_pressure;BME280_temperature;BME280_humidity;BME280_pressure;Samples;Min_cycle;Max_cycle;Signal;HPM_P1;HPM_P2
2022/02/09 00:00:28;;;;;;;;;;;;;;;18.25;49.10;100978.53;2056147;28;19921;-46
2022/02/09 00:01:45;;;;;;;;;;;;;;;18.25;49.25;100986.72;2056703;28;20245;-44
2022/02/09 00:03:04;;;;;;;;;;;;;;;18.26;48.95;100987.56;2063059;28;19964;-45
2022/02/09 00:04:57;;;;;;;;;;;;;;;18.24;49.03;100997.75;2071308;28;19921;-44
2022/02/09 00:05:42;;;;;;;;;;;;;;;18.24;49.19;101005.94;2059366;28;20352;-45
2022/02/09 00:08:10;;;;;;;;;;;;;;;18.24;49.05;101001.31;2063401;28;22551;-46
2022/02/09 00:09:09;;;;;;;;;;;;;;;18.21;49.32;100998.84;2064343;28;19960;-45
2022/02/09 00:10:10;;;;;;;;;;;;;;;18.20;49.43;100988.91;2060399;28;19917;-45
2022/02/09 00:11:15;;;;;;;;;;;;;;;18.20;49.15;100988.91;2066943;28;19920;-45
2022/02/09 00:12:28;;;;;;;;;;;;;;;18.19;49.35;100988.03;2066969;28;19915;-45
2022/02/09 00:13:43;;;;;;;;;;;;;;;18.19;49.39;100992.66;2063530;28;19925;-45
2022/02/09 00:14:55;;;;;;;;;;;;;;;18.19;49.19;101000.81;2061619;28;20071;-44
2022/02/09 00:16:13;;;;;;;;;;;;;;;18.18;48.98;100999.97;2061400;28;19909;-45
2022/02/09 00:21:05;;;;;;;;;;;;;;;18.20;49.17;100984.34;2065649;28;20028;-45
2022/02/09 00:28:12;;;;;;;;;;;;;;;18.23;49.21;101005.06;2064311;28;19921;-44
2022/02/09 00:32:57;;;;;;;;;;;;;;;18.22;49.29;100992.38;2064229;28;20462;-43
2022/02/09 00:43:28;;;;;;;;;;;;;;;18.09;49.50;100997.09;2064526;28;19978;-43
2022/02/09 01:39:23;;;;;;;;;;;;;;;18.13;49.15;101009.53;2065396;28;19944;-43
2022/02/09 01:55:38;;;;;;;;;;;;;;;18.34;48.60;101018.69;2064422;28;19949;-44
2022/02/09 01:56:39;;;;;;;;;;;;;;;18.37;48.75;101014.84;2064872;28;20413;-43
2022/02/09 01:57:39;;;;;;;;;;;;;;;18.36;48.49;101016.72;2055522;28;19969;-43
2022/02/09 01:58:40;;;;;;;;;;;;;;;18.36;48.67;101016.72;2057212;28;20566;-43
2022/02/09 01:59:42;;;;;;;;;;;;;;;18.36;48.38;101011.25;2062012;28;19926;-43
2022/02/09 02:00:43;;;;;;;;;;;;;;;18.37;48.65;101023.94;2062513;28;19917;-44
2022/02/09 02:01:43;;;;;;;;;;;;;;;18.36;48.55;101024.06;2060888;28;19952;-44
2022/02/09 02:02:43;;;;;;;;;;;;;;;18.35;48.43;101025.06;2061479;28;20006;-44
2022/02/09 02:03:44;;;;;;;;;;;;;;;18.34;48.67;101024.16;2060175;28;19925;-44
2022/02/09 02:04:45;;;;;;;;;;;;;;;18.33;48.64;101022.44;2062709;28;20086;-43
2022/02/09 02:05:46;;;;;;;;;;;;;;;18.32;48.65;101020.69;2061634;28;19925;-44
2022/02/09 02:06:49;;;;;;;;;;;;;;;18.31;48.34;101021.69;2063632;28;20338;-43
2022/02/09 02:07:54;;;;;;;;;;;;;;;18.30;48.70;101022.69;2063598;28;19921;-43
2022/02/09 02:08:54;;;;;;;;;;;;;;;18.28;48.48;101012.88;2065444;28;20246;-44
2022/02/09 02:10:02;;;;;;;;;;;;;;;18.26;48.41;101015.72;2064578;28;20006;-45
2022/02/09 02:12:12;;;;;;;;;;;;;;;18.26;48.60;101014.88;2062593;28;20011;-43
2022/02/09 02:16:04;;;;;;;;;;;;;;;18.24;48.77;101023.16;2063824;28;19928;-43
2022/02/09 02:16:45;;;;;;;;;;;;;;;18.23;48.69;101013.25;2059337;28;19960;-43
2022/02/09 02:17:48;;;;;;;;;;;;;;;18.25;48.59;101015.84;2061763;28;20055;-43
2022/02/09 02:18:57;;;;;;;;;;;;;;;18.23;48.57;101015.97;2063008;28;20552;-43
2022/02/09 02:20:10;;;;;;;;;;;;;;;18.23;48.91;101015.97;2064511;28;20473;-43
2022/02/09 02:22:48;;;;;;;;;;;;;;;18.24;48.64;101023.16;2060422;28;19925;-43
2022/02/09 02:23:55;;;;;;;;;;;;;;;18.24;48.56;101017.69;2062172;28;20039;-43
2022/02/09 02:34:45;;;;;;;;;;;;;;;18.20;48.58;101019.81;2063425;28;19979;-44
2022/02/09 02:36:04;;;;;;;;;;;;;;;18.19;48.47;101015.34;2062263;28;19948;-43
2022/02/09 03:10:43;;;;;;;;;;;;;;;18.08;48.88;101017.16;2064250;28;19925;-44
2022/02/09 03:13:51;;;;;;;;;;;;;;;18.07;48.84;101027.22;2064151;28;19921;-43
2022/02/09 03:15:12;;;;;;;;;;;;;;;18.05;48.80;101022.88;2061555;28;19922;-45
2022/02/09 03:16:15;;;;;;;;;;;;;;;18.05;48.93;101023.75;2056678;28;21405;-42
2022/02/09 03:17:21;;;;;;;;;;;;;;;18.04;49.21;101022.00;2049183;28;19923;-44
2022/02/09 03:20:49;;;;;;;;;;;;;;;18.05;48.91;101022.88;2064305;28;19971;-43
2022/02/09 03:23:56;;;;;;;;;;;;;;;18.04;48.95;101010.25;2064687;28;19948;-43
2022/02/09 03:27:31;;;;;;;;;;;;;;;18.04;49.06;101007.50;2066362;28;20664;-44
2022/02/09 03:42:16;;;;;;;;;;;;;;;18.04;49.13;101010.25;2039642;28;20016;-42
2022/02/09 03:54:53;;;;;;;;;;;;;;;17.93;49.34;101001.03;2066937;28;19925;-44
2022/02/09 03:57:11;;;;;;;;;;;;;;;17.95;49.16;100995.44;2064977;28;20414;-43
2022/02/09 03:58:11;;;;;;;;;;;;;;;17.94;49.19;100993.72;2062772;28;19917;-42
2022/02/09 03:59:13;;;;;;;;;;;;;;;17.93;49.20;100990.13;2064845;28;20880;-42
2022/02/09 04:00:24;;;;;;;;;;;;;;;17.94;49.18;100983.69;2063734;28;19925;-42
2022/02/09 04:01:29;;;;;;;;;;;;;;;17.93;49.15;100987.41;2056332;28;20054;-43
2022/02/09 04:02:30;;;;;;;;;;;;;;;17.93;49.19;100990.13;2055823;28;19929;-42
2022/02/09 04:03:30;;;;;;;;;;;;;;;17.92;49.20;100988.38;2065545;28;20395;-43
2022/02/09 04:04:31;;;;;;;;;;;;;;;17.92;49.16;100991.09;2059968;28;20230;-44
2022/02/09 04:05:31;;;;;;;;;;;;;;;17.92;49.27;100992.97;2057030;28;20420;-43
2022/02/09 04:06:35;;;;;;;;;;;;;;;17.92;49.35;100985.66;2056244;28;19925;-42
2022/02/09 04:07:35;;;;;;;;;;;;;;;17.91;49.32;100983.06;2064336;28;20008;-42
2022/02/09 04:08:42;;;;;;;;;;;;;;;17.90;49.21;100984.91;2064768;28;19925;-43
2022/02/09 04:09:47;;;;;;;;;;;;;;;17.90;49.33;100987.63;2065321;28;19927;-42
2022/02/09 04:10:58;;;;;;;;;;;;;;;17.89;49.29;100985.91;2062941;28;20242;-42
2022/02/09 04:12:25;;;;;;;;;;;;;;;17.88;49.43;100992.31;2064984;28;19921;-42
2022/02/09 04:13:29;;;;;;;;;;;;;;;17.88;49.43;100984.16;2066114;28;19928;-43
2022/02/09 04:14:43;;;;;;;;;;;;;;;17.87;49.49;100982.41;2064422;28;19918;-43
2022/02/09 04:20:17;;;;;;;;;;;;;;;17.84;49.41;100971.75;2049558;28;19963;-42
2022/02/09 04:36:09;;;;;;;;;;;;;;;17.86;49.35;100975.25;2066851;28;19921;-42
2022/02/09 04:36:49;;;;;;;;;;;;;;;17.89;49.27;100983.19;2007400;29;20392;-43
2022/02/09 04:39:02;;;;;;;;;;;;;;;17.88;49.15;100989.59;2058790;28;20505;-43
2022/02/09 04:40:09;;;;;;;;;;;;;;;17.87;49.25;100976.97;2064630;28;19913;-42
2022/02/09 04:47:35;;;;;;;;;;;;;;;17.84;49.31;100976.34;2066215;28;19926;-42
2022/02/09 04:55:43;;;;;;;;;;;;;;;17.83;49.29;100971.88;2064046;28;19913;-44
2022/02/09 04:56:49;;;;;;;;;;;;;;;17.83;49.37;100974.59;2071023;28;19976;-42
2022/02/09 04:57:59;;;;;;;;;;;;;;;17.83;49.55;100975.47;2064056;28;19921;-43
2022/02/09 04:59:25;;;;;;;;;;;;;;;17.83;49.31;100975.47;2054734;28;20426;-42
2022/02/09 05:21:19;;;;;;;;;;;;;;;17.70;49.70;100980.13;2052386;28;20020;-42
2022/02/09 05:22:39;;;;;;;;;;;;;;;17.69;49.57;100986.56;2062879;28;19921;-43
2022/02/09 05:25:12;;;;;;;;;;;;;;;17.68;49.69;100985.69;2062732;28;20067;-42
2022/02/09 05:27:20;;;;;;;;;;;;;;;17.69;49.60;100989.28;2062338;28;19932;-43
2022/02/09 05:28:20;;;;;;;;;;;;;;;17.70;49.46;100991.03;2063825;28;19936;-42
2022/02/09 05:29:21;;;;;;;;;;;;;;;17.70;49.48;100991.03;2066649;28;19917;-42
2022/02/09 05:30:22;;;;;;;;;;;;;;;17.70;49.51;100985.56;2061571;28;20433;-44
2022/02/09 05:31:22;;;;;;;;;;;;;;;17.70;49.57;100985.56;2055908;28;20240;-42
2022/02/09 05:32:22;;;;;;;;;;;;;;;17.69;49.44;100990.16;2056711;28;20016;-43
2022/02/09 05:33:23;;;;;;;;;;;;;;;17.68;49.52;100988.41;2066190;28;20216;-42
2022/02/09 05:34:24;;;;;;;;;;;;;;;17.68;49.53;100982.09;2060894;28;19982;-42
2022/02/09 05:35:25;;;;;;;;;;;;;;;17.67;49.46;100985.81;2061687;28;19955;-42
2022/02/09 05:36:25;;;;;;;;;;;;;;;17.66;49.70;100989.50;2054907;28;19950;-42
2022/02/09 05:37:26;;;;;;;;;;;;;;;17.64;49.59;100986.03;2056621;28;19948;-42
2022/02/09 05:38:26;;;;;;;;;;;;;;;17.65;49.72;100987.78;2064169;28;20330;-43
2022/02/09 05:39:27;;;;;;;;;;;;;;;17.64;49.56;100980.56;2063160;28;19914;-43
2022/02/09 05:40:29;;;;;;;;;;;;;;;17.63;49.85;100982.44;2063001;28;19921;-42
2022/02/09 05:41:31;;;;;;;;;;;;;;;17.62;49.70;100977.13;2059519;28;20423;-43
2022/02/09 05:42:32;;;;;;;;;;;;;;;17.62;49.60;100982.56;2055293;28;19926;-42
2022/02/09 05:43:33;;;;;;;;;;;;;;;17.61;49.64;100978.97;2057721;28;19924;-42
2022/02/09 05:44:33;;;;;;;;;;;;;;;17.61;49.66;100984.41;2068217;28;19909;-42
2022/02/09 05:51:40;;;;;;;;;;;;;;;17.58;49.84;100973.75;2065874;28;20031;-42
2022/02/09 05:54:23;;;;;;;;;;;;;;;17.60;49.83;100984.56;2059873;28;19921;-43
2022/02/09 05:55:45;;;;;;;;;;;;;;;17.60;49.70;100981.81;2056936;28;19964;-43
2022/02/09 05:57:10;;;;;;;;;;;;;;;17.58;49.83;100976.47;2056787;28;20355;-43
2022/02/09 05:58:20;;;;;;;;;;;;;;;17.60;49.71;100979.09;2063812;28;20813;-42
2022/02/09 06:00:21;;;;;;;;;;;;;;;17.58;49.85;100977.34;2061064;28;19921;-43
2022/02/09 06:01:21;;;;;;;;;;;;;;;17.58;49.72;100985.50;2066735;28;19913;-42
2022/02/09 06:02:22;;;;;;;;;;;;;;;17.60;49.65;100984.56;2065014;28;20218;-43
2022/02/09 06:03:23;;;;;;;;;;;;;;;17.58;49.93;100985.50;2055523;28;19995;-44
2022/02/09 06:04:23;;;;;;;;;;;;;;;17.57;49.68;100978.34;2056798;28;19933;-43
2022/02/09 06:05:23;;;;;;;;;;;;;;;17.58;49.75;100984.66;2060284;28;20558;-42
2022/02/09 06:06:24;;;;;;;;;;;;;;;17.55;49.76;100976.72;2065186;28;19967;-42
2022/02/09 06:07:25;;;;;;;;;;;;;;;17.55;49.62;100980.31;2054956;28;19918;-42
2022/02/09 06:08:25;;;;;;;;;;;;;;;17.54;49.67;100978.59;2058039;28;19914;-43
2022/02/09 06:09:27;;;;;;;;;;;;;;;17.54;49.78;100978.59;2063443;28;20355;-45
2022/02/09 06:10:31;;;;;;;;;;;;;;;17.53;49.92;100974.09;2061152;28;19928;-44
2022/02/09 06:11:49;;;;;;;;;;;;;;;17.53;49.86;100979.56;2064195;28;19921;-44
2022/02/09 06:13:46;;;;;;;;;;;;;;;17.50;50.08;100968.91;2064415;28;20506;-44
2022/02/09 06:20:17;;;;;;;;;;;;;;;17.47;50.20;100974.59;2064764;28;19921;-41
2022/02/09 06:21:19;;;;;;;;;;;;;;;17.47;49.82;100963.69;2062911;28;19917;-43
2022/02/09 06:22:21;;;;;;;;;;;;;;;17.47;49.98;100971.88;2057731;28;19976;-43
2022/02/09 06:23:21;;;;;;;;;;;;;;;17.48;49.94;100976.31;2050883;28;19972;-43
2022/02/09 06:24:22;;;;;;;;;;;;;;;17.49;50.05;100971.72;2054013;28;19929;-43
2022/02/09 06:25:23;;;;;;;;;;;;;;;17.49;49.72;100972.63;2063481;28;19925;-43
2022/02/09 06:26:23;;;;;;;;;;;;;;;17.51;49.74;100975.22;2063397;28;19925;-44
2022/02/09 06:27:24;;;;;;;;;;;;;;;17.51;49.74;100976.06;2065542;28;20175;-44
2022/02/09 06:28:25;;;;;;;;;;;;;;;17.52;49.62;100972.38;2064865;28;19979;-43
2022/02/09 06:29:25;;;;;;;;;;;;;;;17.52;49.52;100977.81;2064510;28;20035;-43
2022/02/09 06:30:25;;;;;;;;;;;;;;;17.53;49.70;100976.81;2062682;28;19960;-43
2022/02/09 06:31:26;;;;;;;;;;;;;;;17.54;49.39;100974.97;2060039;28;19921;-44
2022/02/09 06:32:27;;;;;;;;;;;;;;;17.54;49.16;100970.41;2066127;28;19943;-43
2022/02/09 06:33:28;;;;;;;;;;;;;;;17.55;49.63;100977.59;2066483;28;20230;-43
2022/02/09 06:34:28;;;;;;;;;;;;;;;17.55;49.38;100977.59;2062600;28;20039;-44
2022/02/09 06:35:28;;;;;;;;;;;;;;;17.55;49.63;100980.31;2064936;28;19932;-43
2022/02/09 06:36:29;;;;;;;;;;;;;;;17.54;49.63;100970.41;2063258;28;19941;-43
2022/02/09 06:37:40;;;;;;;;;;;;;;;17.54;49.64;100974.97;2064484;28;19924;-44
2022/02/09 06:38:40;;;;;;;;;;;;;;;17.54;49.41;100975.84;2061969;28;20327;-43
2022/02/09 06:39:44;;;;;;;;;;;;;;;17.54;49.61;100981.31;2065144;28;20040;-43
2022/02/09 06:40:46;;;;;;;;;;;;;;;17.55;49.42;100977.59;2066995;28;20282;-43
2022/02/09 06:41:46;;;;;;;;;;;;;;;17.54;49.52;100975.84;2062825;28;19921;-44
2022/02/09 06:42:47;;;;;;;;;;;;;;;17.55;49.40;100977.59;2062354;28;19940;-43
2022/02/09 06:43:47;;;;;;;;;;;;;;;17.55;49.56;100972.13;2065261;28;19925;-43
2022/02/09 06:44:48;;;;;;;;;;;;;;;17.54;49.50;100977.69;2063334;28;19917;-42
2022/02/09 06:45:49;;;;;;;;;;;;;;;17.56;49.53;100978.44;2061621;28;19917;-43
2022/02/09 06:46:50;;;;;;;;;;;;;;;17.56;49.52;100975.72;2062655;28;19925;-43
2022/02/09 06:47:50;;;;;;;;;;;;;;;17.55;49.57;100977.59;2063266;28;19920;-43
2022/02/09 06:48:51;;;;;;;;;;;;;;;17.56;49.32;100978.44;2065267;28;19921;-43
2022/02/09 06:50:01;;;;;;;;;;;;;;;17.55;49.27;100972.13;2061584;28;20357;-43
2022/02/09 06:51:10;;;;;;;;;;;;;;;17.56;49.38;100979.34;2067147;28;20026;-43
2022/02/09 06:52:11;;;;;;;;;;;;;;;17.57;49.36;100981.06;2064879;28;20001;-43
2022/02/09 06:54:29;;;;;;;;;;;;;;;17.58;49.22;100984.66;2064747;28;19923;-43
2022/02/09 06:55:29;;;;;;;;;;;;;;;17.59;49.22;100978.22;2055131;28;20272;-44
2022/02/09 06:58:59;;;;;;;;;;;;;;;17.60;48.95;100988.13;2062498;28;19924;-43
2022/02/09 06:59:59;;;;;;;;;;;;;;;17.61;48.94;100986.28;2065365;28;20259;-43
2022/02/09 07:01:03;;;;;;;;;;;;;;;17.61;48.94;100981.69;2065439;28;19921;-44
2022/02/09 07:02:05;;;;;;;;;;;;;;;17.61;49.03;100989.88;2061126;28;19932;-43
2022/02/09 07:03:05;;;;;;;;;;;;;;;17.62;48.87;100988.03;2064859;28;19921;-43
2022/02/09 07:04:05;;;;;;;;;;;;;;;17.62;48.91;100988.03;2064567;28;19921;-43
2022/02/09 07:05:06;;;;;;;;;;;;;;;17.63;49.11;100992.47;2065334;28;19924;-43
2022/02/09 07:06:07;;;;;;;;;;;;;;;17.62;49.02;100990.75;2064711;28;19925;-43
2022/02/09 07:07:07;;;;;;;;;;;;;;;17.62;48.96;100996.22;2064121;28;19917;-43
2022/02/09 07:08:08;;;;;;;;;;;;;;;17.61;48.78;100992.59;2064836;28;19921;-42
2022/02/09 07:09:08;;;;;;;;;;;;;;;17.61;48.94;100997.19;2066428;28;19924;-44
2022/02/09 07:10:09;;;;;;;;;;;;;;;17.61;49.07;100991.72;2064726;28;20674;-43
2022/02/09 07:11:09;;;;;;;;;;;;;;;17.58;49.08;100990.97;2064478;28;20012;-43
2022/02/09 07:12:10;;;;;;;;;;;;;;;17.59;48.91;100997.31;2065415;28;19916;-43
2022/02/09 07:13:10;;;;;;;;;;;;;;;17.60;49.06;100995.44;2064280;28;19928;-42
2022/02/09 07:14:10;;;;;;;;;;;;;;;17.59;49.18;101000.03;2065334;28;20016;-43
2022/02/09 07:15:15;;;;;;;;;;;;;;;17.60;49.15;101000.91;2064862;28;19917;-43
2022/02/09 07:16:17;;;;;;;;;;;;;;;17.59;49.18;101000.03;2064154;28;20280;-43
2022/02/09 07:17:17;;;;;;;;;;;;;;;17.58;49.38;101004.59;2064689;28;19925;-43
2022/02/09 07:18:18;;;;;;;;;;;;;;;17.58;49.27;101001.88;2065307;28;19967;-43
2022/02/09 07:19:19;;;;;;;;;;;;;;;17.57;49.30;101000.16;2066899;28;19909;-43
2022/02/09 07:20:27;;;;;;;;;;;;;;;17.58;49.05;101003.75;2067634;28;20005;-43
2022/02/09 07:21:31;;;;;;;;;;;;;;;17.58;49.17;101010.06;2055503;28;20019;-43
2022/02/09 07:22:35;;;;;;;;;;;;;;;17.58;49.23;101010.06;2056092;28;19933;-43
2022/02/09 07:23:42;;;;;;;;;;;;;;;17.58;49.43;101012.78;2056273;28;19961;-44
2022/02/09 07:24:43;;;;;;;;;;;;;;;17.61;49.48;101013.53;2048640;28;19956;-51
2022/02/09 07:25:48;;;;;;;;;;;;;;;17.61;49.15;101008.09;2048765;28;19972;-45
2022/02/09 07:26:50;;;;;;;;;;;;;;;17.62;49.10;101010.72;2055465;28;19926;-44
2022/02/09 07:27:52;;;;;;;;;;;;;;;17.62;49.07;101005.25;2066231;28;19921;-45
2022/02/09 07:28:53;;;;;;;;;;;;;;;17.65;49.12;101015.06;2064955;28;19956;-46
2022/02/09 07:29:53;;;;;;;;;;;;;;;17.65;49.10;101018.63;2061946;28;19960;-47
2022/02/09 07:30:53;;;;;;;;;;;;;;;17.67;48.85;101007.63;2065903;28;20083;-45
2022/02/09 07:31:54;;;;;;;;;;;;;;;17.66;48.73;101011.31;2066649;28;19995;-44
2022/02/09 07:32:55;;;;;;;;;;;;;;;17.66;49.02;101006.72;2062891;28;19920;-47
2022/02/09 07:33:56;;;;;;;;;;;;;;;17.67;49.02;101018.53;2059435;28;19928;-44
2022/02/09 07:34:56;;;;;;;;;;;;;;;17.67;48.83;101013.09;2061973;28;19959;-45
2022/02/09 07:35:57;;;;;;;;;;;;;;;17.67;49.09;101018.53;2061481;28;20493;-45
2022/02/09 07:36:57;;;;;;;;;;;;;;;17.66;48.84;101016.78;2065360;28;22991;-43
2022/02/09 07:37:58;;;;;;;;;;;;;;;17.66;49.01;101016.78;2062033;28;19925;-44
2022/02/09 07:38:58;;;;;;;;;;;;;;;17.65;49.15;101018.63;2062521;28;19921;-45
2022/02/09 07:40:00;;;;;;;;;;;;;;;17.66;48.83;101022.22;2062970;28;19921;-44
2022/02/09 07:41:01;;;;;;;;;;;;;;;17.64;49.06;101018.75;2060485;28;20663;-44
2022/02/09 07:42:09;;;;;;;;;;;;;;;17.63;49.27;101012.44;2064460;28;19925;-44
2022/02/09 07:43:18;;;;;;;;;;;;;;;17.64;49.00;101016.03;2061950;28;19956;-46
2022/02/09 07:44:33;;;;;;;;;;;;;;;17.61;49.23;101021.72;2054663;28;19925;-44
2022/02/09 07:47:08;;;;;;;;;;;;;;;17.62;49.18;101023.47;2063026;28;19925;-44
2022/02/09 07:50:42;;;;;;;;;;;;;;;17.57;49.49;101013.78;2043179;28;19975;-44
2022/02/09 07:52:07;;;;;;;;;;;;;;;17.59;49.38;101021.84;2059794;28;20390;-43
2022/02/09 07:54:05;;;;;;;;;;;;;;;17.61;49.47;101021.72;2061163;28;20279;-44
2022/02/09 07:55:06;;;;;;;;;;;;;;;17.60;49.39;101017.25;2062334;28;19919;-43
2022/02/09 07:56:06;;;;;;;;;;;;;;;17.60;49.68;101020.00;2064741;28;19921;-45
2022/02/09 07:57:07;;;;;;;;;;;;;;;17.58;49.64;101015.50;2064347;28;19913;-44
2022/02/09 07:58:07;;;;;;;;;;;;;;;17.61;49.71;101024.44;2062304;28;19914;-49
2022/02/09 07:59:09;;;;;;;;;;;;;;;17.61;49.74;101019.00;2064608;28;19955;-44
2022/02/09 08:00:13;;;;;;;;;;;;;;;17.60;49.53;101018.13;2064033;28;19951;-45
2022/02/09 08:01:13;;;;;;;;;;;;;;;17.58;49.73;101015.50;2053953;28;19933;-43
2022/02/09 08:02:13;;;;;;;;;;;;;;;17.59;49.62;101010.94;2058614;28;19913;-44
2022/02/09 08:03:14;;;;;;;;;;;;;;;17.60;49.65;101009.09;2062720;28;20425;-44
2022/02/09 08:04:14;;;;;;;;;;;;;;;17.56;49.65;101009.34;2064962;28;20330;-45
2022/02/09 08:05:15;;;;;;;;;;;;;;;17.56;49.95;101011.16;2060360;28;19956;-45
2022/02/09 08:06:17;;;;;;;;;;;;;;;17.54;49.78;101011.28;2063221;28;19921;-43
2022/02/09 08:07:17;;;;;;;;;;;;;;;17.55;49.63;101018.47;2062673;28;20395;-44
2022/02/09 08:08:18;;;;;;;;;;;;;;;17.50;49.76;101012.50;2062832;28;19917;-47
2022/02/09 08:09:32;;;;;;;;;;;;;;;17.42;49.45;101017.69;2062328;28;20115;-45
2022/02/09 08:12:31;;;;;;;;;;;;;;;17.25;46.38;101016.25;2062224;28;19967;-43
2022/02/09 08:29:47;;;;;;;;;;;;;;;16.88;41.57;101009.94;2060500;28;23882;-44
2022/02/09 08:31:02;;;;;;;;;;;;;;;16.89;42.13;101008.97;2063765;28;20420;-44
2022/02/09 08:33:08;;;;;;;;;;;;;;;16.87;41.56;101019.94;2064468;28;19968;-43
2022/02/09 08:34:09;;;;;;;;;;;;;;;16.86;41.57;101017.34;2057132;28;19960;-45
2022/02/09 08:35:09;;;;;;;;;;;;;;;16.87;42.36;101014.50;2056743;28;20079;-44
2022/02/09 08:36:10;;;;;;;;;;;;;;;16.89;42.64;101006.22;2073726;28;19917;-44
2022/02/09 08:37:10;;;;;;;;;;;;;;;16.90;44.42;101007.97;2061957;28;19967;-44
2022/02/09 08:38:11;;;;;;;;;;;;;;;16.93;44.48;101016.78;2068506;28;19913;-44
2022/02/09 08:39:11;;;;;;;;;;;;;;;16.96;44.20;101012.97;2063436;28;19921;-44
2022/02/09 08:40:16;;;;;;;;;;;;;;;17.00;44.23;101008.16;2061873;28;19921;-43
2022/02/09 08:41:17;;;;;;;;;;;;;;;17.02;45.15;101012.50;2062498;28;20434;-44
2022/02/09 08:42:18;;;;;;;;;;;;;;;17.04;45.32;101010.53;2066335;28;20335;-44
2022/02/09 08:43:18;;;;;;;;;;;;;;;17.06;45.78;101014.00;2062129;28;20392;-44
2022/02/09 08:44:18;;;;;;;;;;;;;;;17.09;46.34;101012.91;2061829;28;19913;-44
2022/02/09 08:45:19;;;;;;;;;;;;;;;17.10;46.60;101007.38;2066202;28;19916;-44
2022/02/09 08:46:20;;;;;;;;;;;;;;;17.12;46.50;101010.84;2063184;28;19943;-44
2022/02/09 08:47:21;;;;;;;;;;;;;;;17.10;46.60;101009.22;2048032;28;19936;-47
2022/02/09 08:48:21;;;;;;;;;;;;;;;17.08;46.45;101003.03;2048174;28;20198;-45
2022/02/09 08:49:22;;;;;;;;;;;;;;;17.04;45.53;101009.66;2047823;28;19914;-45
2022/02/09 08:50:22;;;;;;;;;;;;;;;17.00;44.84;101009.03;2047128;28;20377;-44
2022/02/09 08:51:24;;;;;;;;;;;;;;;16.96;44.63;101017.56;2044569;28;19910;-44
2022/02/09 08:52:24;;;;;;;;;;;;;;;16.92;44.48;101016.88;2047297;28;20236;-44
2022/02/09 08:53:25;;;;;;;;;;;;;;;16.89;44.42;101017.13;2048963;28;19913;-44
2022/02/09 08:54:26;;;;;;;;;;;;;;;16.87;44.55;101014.50;2048789;28;19918;-44
2022/02/09 08:55:27;;;;;;;;;;;;;;;16.85;44.63;101010.16;2049882;28;20245;-45
2022/02/09 08:56:29;;;;;;;;;;;;;;;16.84;44.66;101013.88;2052697;28;19929;-43
2022/02/09 08:57:30;;;;;;;;;;;;;;;16.83;44.54;101014.84;2053095;28;19932;-44
2022/02/09 08:58:31;;;;;;;;;;;;;;;16.80;44.17;101013.22;2047790;28;20051;-44
2022/02/09 08:59:31;;;;;;;;;;;;;;;16.77;44.02;101012.53;2052492;28;20601;-44
2022/02/09 09:00:36;;;;;;;;;;;;;;;16.75;44.15;101009.94;2054188;28;19918;-45
2022/02/09 09:01:46;;;;;;;;;;;;;;;16.74;44.40;101013.66;2046277;28;19968;-43
2022/02/09 09:02:52;;;;;;;;;;;;;;;16.71;44.22;101011.16;2050251;28;19926;-44
2022/02/09 09:03:56;;;;;;;;;;;;;;;16.69;44.69;101008.53;2047611;28;19914;-43
2022/02/09 09:05:07;;;;;;;;;;;;;;;16.68;44.62;101011.34;2045187;28;19920;-44
2022/02/09 09:06:09;;;;;;;;;;;;;;;16.66;44.91;101011.50;2049566;28;20562;-45
2022/02/09 09:07:15;;;;;;;;;;;;;;;16.64;44.69;101008.00;2044261;28;20229;-44
2022/02/09 09:08:36;;;;;;;;;;;;;;;16.64;44.63;101008.00;2046394;28;19922;-44
2022/02/09 09:31:25;;;;;;;;;;;;;;;16.70;46.16;101007.53;2046671;28;19922;-43
2022/02/09 09:40:34;;;;;;;;;;;;;;;16.48;43.97;101004.63;2046319;28;20028;-43
2022/02/09 10:04:15;;;;;;;;;;;;;;;17.08;45.68;100998.44;2063866;28;19929;-43
2022/02/09 10:31:54;;;;;;;;;;;;;;;17.07;47.40;101004.84;2062674;28;19956;-42
2022/02/09 10:32:58;;;;;;;;;;;;;;;17.06;47.31;101014.00;2060292;28;20212;-42
2022/02/09 10:34:15;;;;;;;;;;;;;;;17.07;47.53;101003.97;2062330;28;19925;-43
2022/02/09 10:36:12;;;;;;;;;;;;;;;17.07;47.58;101006.72;2063314;28;20122;-42
2022/02/09 10:36:49;;;;;;;;;;;;;;;17.07;47.69;101009.44;2049565;28;19913;-42
2022/02/09 10:37:49;;;;;;;;;;;;;;;17.08;47.72;101008.47;2064043;28;19921;-43
2022/02/09 10:39:03;;;;;;;;;;;;;;;17.06;47.84;101003.13;2062381;28;19921;-42
2022/02/09 10:40:10;;;;;;;;;;;;;;;17.07;47.96;101010.28;2057666;28;19921;-42
2022/02/09 10:41:12;;;;;;;;;;;;;;;17.07;47.99;101013.00;2055569;28;19917;-42
2022/02/09 10:42:17;;;;;;;;;;;;;;;17.08;47.70;101006.59;2063618;28;20409;-43
2022/02/09 10:43:21;;;;;;;;;;;;;;;17.08;47.73;101019.38;2063592;28;20307;-42
2022/02/09 10:44:25;;;;;;;;;;;;;;;17.07;47.94;101013.00;2064316;28;19921;-44
2022/02/09 10:45:35;;;;;;;;;;;;;;;17.08;47.79;101009.31;2062796;28;19924;-42
2022/02/09 10:47:04;;;;;;;;;;;;;;;17.08;47.99;101006.59;2052328;28;20245;-43
2022/02/09 10:48:25;;;;;;;;;;;;;;;17.09;47.90;101002.03;2047596;28;19921;-41
2022/02/09 10:49:29;;;;;;;;;;;;;;;17.09;48.05;101002.88;2064561;28;19913;-42
2022/02/09 10:50:33;;;;;;;;;;;;;;;17.10;48.00;101007.38;2064305;28;20015;-41
2022/02/09 10:51:44;;;;;;;;;;;;;;;17.11;47.88;101000.06;2063328;28;19927;-41
2022/02/09 10:52:49;;;;;;;;;;;;;;;17.12;48.27;101005.41;2062273;28;20007;-53
2022/02/09 10:54:04;;;;;;;;;;;;;;;17.14;48.28;100999.81;2062945;28;19920;-48
2022/02/09 10:55:05;;;;;;;;;;;;;;;17.16;48.33;100997.00;2061414;28;19917;-48
2022/02/09 10:56:05;;;;;;;;;;;;;;;17.17;48.41;101004.16;2062229;28;19913;-49
2022/02/09 10:57:08;;;;;;;;;;;;;;;17.18;48.14;101000.47;2063307;28;19927;-49
2022/02/09 10:58:09;;;;;;;;;;;;;;;17.19;48.28;101004.91;2061871;28;19913;-53
2022/02/09 10:59:11;;;;;;;;;;;;;;;17.17;48.59;100993.25;2063771;28;19944;-54
2022/02/09 11:00:11;;;;;;;;;;;;;;;17.18;48.33;101003.19;2064885;28;19918;-55
2022/02/09 11:01:13;;;;;;;;;;;;;;;17.18;48.33;101005.91;2053254;28;19925;-54
2022/02/09 11:02:14;;;;;;;;;;;;;;;17.18;48.67;101000.47;2054355;28;20067;-51
2022/02/09 11:03:17;;;;;;;;;;;;;;;17.19;48.71;100996.75;2062203;28;19928;-48
2022/02/09 11:04:18;;;;;;;;;;;;;;;17.18;48.90;100997.75;2062755;28;20784;-41
2022/02/09 11:05:20;;;;;;;;;;;;;;;17.19;48.96;100994.88;2062476;28;20612;-41
2022/02/09 11:06:21;;;;;;;;;;;;;;;17.20;49.11;100993.03;2053604;28;19989;-41
2022/02/09 11:07:21;;;;;;;;;;;;;;;17.21;49.16;100994.78;2054684;28;20300;-41
2022/02/09 11:08:22;;;;;;;;;;;;;;;17.21;49.19;100994.78;2062662;28;19960;-41
2022/02/09 11:09:22;;;;;;;;;;;;;;;17.21;49.00;100992.06;2056461;28;20817;-42
2022/02/09 11:10:23;;;;;;;;;;;;;;;17.20;48.86;100988.47;2055446;28;20348;-42
2022/02/09 11:11:24;;;;;;;;;;;;;;;17.20;48.80;100982.13;2062748;28;19913;-42
2022/02/09 11:12:24;;;;;;;;;;;;;;;17.20;48.80;100979.41;2060741;28;19921;-43
2022/02/09 11:13:25;;;;;;;;;;;;;;;17.21;48.85;100981.16;2060813;28;19921;-42
2022/02/09 11:14:26;;;;;;;;;;;;;;;17.20;48.89;100984.84;2063613;28;19921;-43
2022/02/09 11:15:26;;;;;;;;;;;;;;;17.21;48.73;100986.59;2064977;28;19927;-40
2022/02/09 11:16:27;;;;;;;;;;;;;;;17.20;48.73;100976.69;2062040;28;19928;-42
2022/02/09 11:17:27;;;;;;;;;;;;;;;17.20;48.81;100976.69;2063353;28;19928;-41
2022/02/09 11:18:28;;;;;;;;;;;;;;;17.19;49.00;100974.94;2061626;28;20015;-42
2022/02/09 11:19:34;;;;;;;;;;;;;;;17.20;48.77;100983.03;2060100;28;20245;-42
2022/02/09 11:20:55;;;;;;;;;;;;;;;17.21;48.78;100983.88;2063189;28;19927;-42
2022/02/09 11:22:02;;;;;;;;;;;;;;;17.19;49.00;100978.53;2062587;28;19948;-42
2022/02/09 11:23:05;;;;;;;;;;;;;;;17.20;49.00;100983.03;2063268;28;20293;-43
2022/02/09 11:24:15;;;;;;;;;;;;;;;17.21;49.16;100978.44;2052615;28;20016;-42
2022/02/09 11:25:20;;;;;;;;;;;;;;;17.20;49.21;100971.22;2059274;28;20303;-42